sensor_id;sensor_type;location;lat;lon;timestamp;temperature;humidity
37408;DHT22;24866;50.248;8.252;2023-10-08T00:00:35;13.40;99.90
37408;DHT22;24866;50.248;8.252;2023-10-08T00:03:15;13.50;99.90
37408;DHT22;24866;50.248;8.252;2023-10-08T00:05:46;13.50;99.90
37408;DHT22;24866;50.248;8.252;2023-10-08T00:08:19;13.50;99.90
37408;DHT22;24866;50.248;8.252;2023-10-08T00:10:50;13.50;99.90
37408;DHT22;24866;50.248;8.252;2023-10-08T00:13:20;13.50;99.90
37408;DHT22;24866;50.248;8.252;2023-10-08T00:15:51;13.60;99.90
37408;DHT22;24866;50.248;8.252;2023-10-08T00:18:22;13.70;99.90
37408;DHT22;24866;50.248;8.252;2023-10-08T00:20:52;13.70;99.90
37408;DHT22;24866;50.248;8.252;2023-10-08T00:23:28;13.60;99.90
37408;DHT22;24866;50.248;8.252;2023-10-08T00:25:58;13.70;99.90
37408;DHT22;24866;50.248;8.252;2023-10-08T00:28:33;13.80;99.90
37408;DHT22;24866;50.248;8.252;2023-10-08T00:31:03;13.80;99.90
37408;DHT22;24866;50.248;8.252;2023-10-08T00:33:40;13.60;99.90
37408;DHT22;24866;50.248;8.252;2023-10-08T00:36:12;13.60;99.90
37408;DHT22;24866;50.248;8.252;2023-10-08T00:38:50;13.60;99.90
37408;DHT22;24866;50.248;8.252;2023-10-08T00:41:22;13.70;99.90
37408;DHT22;24866;50.248;8.252;2023-10-08T00:43:56;13.70;99.90
37408;DHT22;24866;50.248;8.252;2023-10-08T00:46:28;13.30;99.90
37408;DHT22;24866;50.248;8.252;2023-10-08T00:49:02;13.60;99.90
37408;DHT22;24866;50.248;8.252;2023-10-08T00:51:48;13.50;99.90
37408;DHT22;24866;50.248;8.252;2023-10-08T00:54:31;13.50;99.90
37408;DHT22;24866;50.248;8.252;2023-10-08T00:57:03;13.30;99.90
37408;DHT22;24866;50.248;8.252;2023-10-08T00:59:34;13.30;99.90
37408;DHT22;24866;50.248;8.252;2023-10-08T01:02:12;13.50;99.90
37408;DHT22;24866;50.248;8.252;2023-10-08T01:04:48;13.70;99.90
37408;DHT22;24866;50.248;8.252;2023-10-08T01:07:19;13.90;99.90
37408;DHT22;24866;50.248;8.252;2023-10-08T01:09:50;13.60;99.90
37408;DHT22;24866;50.248;8.252;2023-10-08T01:12:21;13.70;99.90
37408;DHT22;24866;50.248;8.252;2023-10-08T01:14:55;13.80;99.90
37408;DHT22;24866;50.248;8.252;2023-10-08T01:17:33;13.90;99.90
37408;DHT22;24866;50.248;8.252;2023-10-08T01:20:15;14.00;99.90
37408;DHT22;24866;50.248;8.252;2023-10-08T01:23:04;14.00;99.90
37408;DHT22;24866;50.248;8.252;2023-10-08T01:25:38;13.90;99.90
37408;DHT22;24866;50.248;8.252;2023-10-08T01:28:09;14.00;99.90
37408;DHT22;24866;50.248;8.252;2023-10-08T01:30:43;14.10;99.90
37408;DHT22;24866;50.248;8.252;2023-10-08T01:33:15;13.90;99.90
37408;DHT22;24866;50.248;8.252;2023-10-08T01:35:49;13.70;99.90
37408;DHT22;24866;50.248;8.252;2023-10-08T01:38:20;13.60;99.90
37408;DHT22;24866;50.248;8.252;2023-10-08T01:40:52;13.60;99.90
37408;DHT22;24866;50.248;8.252;2023-10-08T01:43:22;13.80;99.90
37408;DHT22;24866;50.248;8.252;2023-10-08T01:45:56;13.60;99.90
37408;DHT22;24866;50.248;8.252;2023-10-08T01:48:25;13.50;99.90
37408;DHT22;24866;50.248;8.252;2023-10-08T01:51:00;13.50;99.90
37408;DHT22;24866;50.248;8.252;2023-10-08T01:53:34;13.80;99.90
37408;DHT22;24866;50.248;8.252;2023-10-08T01:56:04;13.50;99.90
37408;DHT22;24866;50.248;8.252;2023-10-08T01:58:34;13.50;99.90
37408;DHT22;24866;50.248;8.252;2023-10-08T02:01:04;13.50;99.90
37408;DHT22;24866;50.248;8.252;2023-10-08T02:03:40;13.70;99.90
37408;DHT22;24866;50.248;8.252;2023-10-08T02:06:10;13.80;99.90
37408;DHT22;24866;50.248;8.252;2023-10-08T02:08:42;13.60;99.90
37408;DHT22;24866;50.248;8.252;2023-10-08T02:11:12;13.70;99.90
37408;DHT22;24866;50.248;8.252;2023-10-08T02:13:44;13.30;99.90
37408;DHT22;24866;50.248;8.252;2023-10-08T02:16:18;13.30;99.90
37408;DHT22;24866;50.248;8.252;2023-10-08T02:18:48;13.40;99.90
37408;DHT22;24866;50.248;8.252;2023-10-08T02:21:19;13.40;99.90
37408;DHT22;24866;50.248;8.252;2023-10-08T02:23:51;13.00;99.90
37408;DHT22;24866;50.248;8.252;2023-10-08T02:26:21;13.00;99.90
37408;DHT22;24866;50.248;8.252;2023-10-08T02:28:52;13.10;99.90
37408;DHT22;24866;50.248;8.252;2023-10-08T02:31:22;13.10;99.90
37408;DHT22;24866;50.248;8.252;2023-10-08T02:33:52;13.30;99.90
37408;DHT22;24866;50.248;8.252;2023-10-08T02:36:21;13.40;99.90
37408;DHT22;24866;50.248;8.252;2023-10-08T02:38:53;12.90;99.90
37408;DHT22;24866;50.248;8.252;2023-10-08T02:41:23;12.80;99.90
37408;DHT22;24866;50.248;8.252;2023-10-08T02:43:53;13.00;99.90
37408;DHT22;24866;50.248;8.252;2023-10-08T02:46:27;12.90;99.90
37408;DHT22;24866;50.248;8.252;2023-10-08T02:49:01;13.10;99.90
37408;DHT22;24866;50.248;8.252;2023-10-08T02:51:32;12.90;99.90
37408;DHT22;24866;50.248;8.252;2023-10-08T02:54:05;13.00;99.90
37408;DHT22;24866;50.248;8.252;2023-10-08T02:56:35;12.80;99.90
37408;DHT22;24866;50.248;8.252;2023-10-08T02:59:07;12.70;99.90
37408;DHT22;24866;50.248;8.252;2023-10-08T03:01:38;12.80;99.90
37408;DHT22;24866;50.248;8.252;2023-10-08T03:04:09;12.90;99.90
37408;DHT22;24866;50.248;8.252;2023-10-08T03:06:47;13.10;99.90
37408;DHT22;24866;50.248;8.252;2023-10-08T03:09:22;13.10;99.90
37408;DHT22;24866;50.248;8.252;2023-10-08T03:11:54;12.90;99.90
37408;DHT22;24866;50.248;8.252;2023-10-08T03:14:26;12.80;99.90
37408;DHT22;24866;50.248;8.252;2023-10-08T03:17:10;12.80;99.90
37408;DHT22;24866;50.248;8.252;2023-10-08T03:19:40;12.70;99.90
37408;DHT22;24866;50.248;8.252;2023-10-08T03:22:13;12.80;99.90
37408;DHT22;24866;50.248;8.252;2023-10-08T03:24:49;13.00;99.90
37408;DHT22;24866;50.248;8.252;2023-10-08T03:27:20;13.10;99.90
37408;DHT22;24866;50.248;8.252;2023-10-08T03:29:54;12.80;99.90
37408;DHT22;24866;50.248;8.252;2023-10-08T03:32:27;12.70;99.90
37408;DHT22;24866;50.248;8.252;2023-10-08T03:35:04;12.70;99.90
37408;DHT22;24866;50.248;8.252;2023-10-08T03:37:39;12.80;99.90
37408;DHT22;24866;50.248;8.252;2023-10-08T03:40:16;12.90;99.90
37408;DHT22;24866;50.248;8.252;2023-10-08T03:43:00;12.80;99.90
37408;DHT22;24866;50.248;8.252;2023-10-08T03:45:31;12.90;99.90
37408;DHT22;24866;50.248;8.252;2023-10-08T03:48:22;13.00;99.90
37408;DHT22;24866;50.248;8.252;2023-10-08T03:50:51;12.80;99.90
37408;DHT22;24866;50.248;8.252;2023-10-08T03:53:25;12.80;99.90
37408;DHT22;24866;50.248;8.252;2023-10-08T03:56:00;13.00;99.90
37408;DHT22;24866;50.248;8.252;2023-10-08T03:58:34;13.00;99.90
37408;DHT22;24866;50.248;8.252;2023-10-08T04:01:10;13.20;99.90
37408;DHT22;24866;50.248;8.252;2023-10-08T04:03:46;13.10;99.90
37408;DHT22;24866;50.248;8.252;2023-10-08T04:06:28;13.30;99.90
37408;DHT22;24866;50.248;8.252;2023-10-08T04:09:06;13.20;99.90
37408;DHT22;24866;50.248;8.252;2023-10-08T04:11:46;13.10;99.90
37408;DHT22;24866;50.248;8.252;2023-10-08T04:14:23;12.90;99.90
37408;DHT22;24866;50.248;8.252;2023-10-08T04:16:53;12.90;99.90
37408;DHT22;24866;50.248;8.252;2023-10-08T04:19:23;13.10;99.90
37408;DHT22;24866;50.248;8.252;2023-10-08T04:21:55;13.10;99.90
37408;DHT22;24866;50.248;8.252;2023-10-08T04:24:26;12.90;99.90
37408;DHT22;24866;50.248;8.252;2023-10-08T04:27:04;13.10;99.90
37408;DHT22;24866;50.248;8.252;2023-10-08T04:29:34;13.10;99.90
37408;DHT22;24866;50.248;8.252;2023-10-08T04:32:06;13.20;99.90
37408;DHT22;24866;50.248;8.252;2023-10-08T04:34:41;13.10;99.90
37408;DHT22;24866;50.248;8.252;2023-10-08T04:37:15;13.10;99.90
37408;DHT22;24866;50.248;8.252;2023-10-08T04:39:48;13.20;99.90
37408;DHT22;24866;50.248;8.252;2023-10-08T04:42:28;13.20;99.90
37408;DHT22;24866;50.248;8.252;2023-10-08T04:44:58;13.10;99.90
37408;DHT22;24866;50.248;8.252;2023-10-08T04:47:28;13.10;99.90
37408;DHT22;24866;50.248;8.252;2023-10-08T04:50:01;13.00;99.90
37408;DHT22;24866;50.248;8.252;2023-10-08T04:52:33;13.10;99.90
37408;DHT22;24866;50.248;8.252;2023-10-08T04:55:14;13.10;99.90
37408;DHT22;24866;50.248;8.252;2023-10-08T04:57:50;13.00;99.90
37408;DHT22;24866;50.248;8.252;2023-10-08T05:00:22;12.70;99.90
37408;DHT22;24866;50.248;8.252;2023-10-08T05:03:09;12.80;99.90
37408;DHT22;24866;50.248;8.252;2023-10-08T05:05:43;13.00;99.90
37408;DHT22;24866;50.248;8.252;2023-10-08T05:08:36;13.00;99.90
37408;DHT22;24866;50.248;8.252;2023-10-08T05:11:26;12.80;99.90
37408;DHT22;24866;50.248;8.252;2023-10-08T05:14:16;13.10;99.90
37408;DHT22;24866;50.248;8.252;2023-10-08T05:16:57;13.20;99.90
37408;DHT22;24866;50.248;8.252;2023-10-08T05:19:29;12.90;99.90
37408;DHT22;24866;50.248;8.252;2023-10-08T05:22:24;12.80;99.90
37408;DHT22;24866;50.248;8.252;2023-10-08T05:25:12;12.50;99.90
37408;DHT22;24866;50.248;8.252;2023-10-08T05:28:04;12.20;99.90
37408;DHT22;24866;50.248;8.252;2023-10-08T05:30:41;12.50;99.90
37408;DHT22;24866;50.248;8.252;2023-10-08T05:33:21;12.60;99.90
37408;DHT22;24866;50.248;8.252;2023-10-08T05:35:56;12.50;99.90
37408;DHT22;24866;50.248;8.252;2023-10-08T05:38:38;12.60;99.90
37408;DHT22;24866;50.248;8.252;2023-10-08T05:41:17;12.70;99.90
37408;DHT22;24866;50.248;8.252;2023-10-08T05:44:07;12.60;99.90
37408;DHT22;24866;50.248;8.252;2023-10-08T05:47:08;12.40;99.90
37408;DHT22;24866;50.248;8.252;2023-10-08T05:50:07;12.30;99.90
37408;DHT22;24866;50.248;8.252;2023-10-08T05:52:53;12.50;99.90
37408;DHT22;24866;50.248;8.252;2023-10-08T05:55:43;12.50;99.90
37408;DHT22;24866;50.248;8.252;2023-10-08T05:58:16;12.50;99.90
37408;DHT22;24866;50.248;8.252;2023-10-08T06:01:04;12.40;99.90
37408;DHT22;24866;50.248;8.252;2023-10-08T06:03:55;12.40;99.90
37408;DHT22;24866;50.248;8.252;2023-10-08T06:06:49;12.60;99.90
37408;DHT22;24866;50.248;8.252;2023-10-08T06:09:40;12.80;99.90
37408;DHT22;24866;50.248;8.252;2023-10-08T06:12:19;12.80;99.90
37408;DHT22;24866;50.248;8.252;2023-10-08T06:14:58;12.70;99.90
37408;DHT22;24866;50.248;8.252;2023-10-08T06:17:37;12.80;99.90
37408;DHT22;24866;50.248;8.252;2023-10-08T06:20:34;13.00;99.90
37408;DHT22;24866;50.248;8.252;2023-10-08T06:23:05;13.10;99.90
37408;DHT22;24866;50.248;8.252;2023-10-08T06:25:36;12.80;99.90
37408;DHT22;24866;50.248;8.252;2023-10-08T06:28:13;13.00;99.90
37408;DHT22;24866;50.248;8.252;2023-10-08T06:30:44;12.70;99.90
37408;DHT22;24866;50.248;8.252;2023-10-08T06:33:15;12.80;99.90
37408;DHT22;24866;50.248;8.252;2023-10-08T06:35:47;12.70;99.90
37408;DHT22;24866;50.248;8.252;2023-10-08T06:38:31;12.90;99.90
37408;DHT22;24866;50.248;8.252;2023-10-08T06:41:03;13.10;99.90
37408;DHT22;24866;50.248;8.252;2023-10-08T06:43:37;13.00;99.90
37408;DHT22;24866;50.248;8.252;2023-10-08T06:46:07;13.10;99.90
37408;DHT22;24866;50.248;8.252;2023-10-08T06:48:41;13.00;99.90
37408;DHT22;24866;50.248;8.252;2023-10-08T06:51:13;12.80;99.90
37408;DHT22;24866;50.248;8.252;2023-10-08T06:53:44;12.90;99.90
37408;DHT22;24866;50.248;8.252;2023-10-08T06:56:15;12.90;99.90
37408;DHT22;24866;50.248;8.252;2023-10-08T06:58:46;13.10;99.90
37408;DHT22;24866;50.248;8.252;2023-10-08T07:01:18;13.20;99.90
37408;DHT22;24866;50.248;8.252;2023-10-08T07:03:49;13.00;99.90
37408;DHT22;24866;50.248;8.252;2023-10-08T07:06:21;13.00;99.90
37408;DHT22;24866;50.248;8.252;2023-10-08T07:09:00;12.90;99.90
37408;DHT22;24866;50.248;8.252;2023-10-08T07:11:33;12.90;99.90
37408;DHT22;24866;50.248;8.252;2023-10-08T07:14:06;12.90;99.90
37408;DHT22;24866;50.248;8.252;2023-10-08T07:16:39;13.10;99.90
37408;DHT22;24866;50.248;8.252;2023-10-08T07:19:10;13.30;99.90
37408;DHT22;24866;50.248;8.252;2023-10-08T07:21:47;13.40;99.90
37408;DHT22;24866;50.248;8.252;2023-10-08T07:24:18;13.40;99.90
37408;DHT22;24866;50.248;8.252;2023-10-08T07:26:50;13.50;99.90
37408;DHT22;24866;50.248;8.252;2023-10-08T07:29:20;13.50;99.90
37408;DHT22;24866;50.248;8.252;2023-10-08T07:31:50;13.60;99.90
37408;DHT22;24866;50.248;8.252;2023-10-08T07:34:21;13.60;99.90
37408;DHT22;24866;50.248;8.252;2023-10-08T07:36:56;13.70;99.90
37408;DHT22;24866;50.248;8.252;2023-10-08T07:39:26;13.80;99.90
37408;DHT22;24866;50.248;8.252;2023-10-08T07:42:03;13.90;99.90
37408;DHT22;24866;50.248;8.252;2023-10-08T07:44:34;14.00;99.90
37408;DHT22;24866;50.248;8.252;2023-10-08T07:47:06;14.10;99.90
37408;DHT22;24866;50.248;8.252;2023-10-08T07:49:40;14.20;99.90
37408;DHT22;24866;50.248;8.252;2023-10-08T07:52:14;14.30;99.90
37408;DHT22;24866;50.248;8.252;2023-10-08T07:54:44;14.30;99.90
37408;DHT22;24866;50.248;8.252;2023-10-08T07:57:14;14.40;99.90
37408;DHT22;24866;50.248;8.252;2023-10-08T07:59:47;14.30;99.90
37408;DHT22;24866;50.248;8.252;2023-10-08T08:02:23;14.40;99.90
37408;DHT22;24866;50.248;8.252;2023-10-08T08:04:55;14.30;99.90
37408;DHT22;24866;50.248;8.252;2023-10-08T08:07:26;14.50;99.90
37408;DHT22;24866;50.248;8.252;2023-10-08T08:09:57;14.50;99.90
37408;DHT22;24866;50.248;8.252;2023-10-08T08:12:28;14.50;99.90
37408;DHT22;24866;50.248;8.252;2023-10-08T08:15:01;14.70;99.90
37408;DHT22;24866;50.248;8.252;2023-10-08T08:17:43;14.80;99.90
37408;DHT22;24866;50.248;8.252;2023-10-08T08:20:16;14.90;99.90
37408;DHT22;24866;50.248;8.252;2023-10-08T08:23:00;15.00;99.90
37408;DHT22;24866;50.248;8.252;2023-10-08T08:25:39;15.10;99.90
37408;DHT22;24866;50.248;8.252;2023-10-08T08:28:23;15.20;99.90
37408;DHT22;24866;50.248;8.252;2023-10-08T08:30:53;15.30;99.90
37408;DHT22;24866;50.248;8.252;2023-10-08T08:33:23;15.30;99.90
37408;DHT22;24866;50.248;8.252;2023-10-08T08:35:58;15.40;99.90
37408;DHT22;24866;50.248;8.252;2023-10-08T08:38:30;15.50;99.90
37408;DHT22;24866;50.248;8.252;2023-10-08T08:41:03;15.60;99.90
37408;DHT22;24866;50.248;8.252;2023-10-08T08:43:35;15.80;99.90
37408;DHT22;24866;50.248;8.252;2023-10-08T08:46:05;15.90;99.90
37408;DHT22;24866;50.248;8.252;2023-10-08T08:48:36;15.80;99.90
37408;DHT22;24866;50.248;8.252;2023-10-08T08:51:07;16.00;99.90
37408;DHT22;24866;50.248;8.252;2023-10-08T08:53:39;16.10;99.90
37408;DHT22;24866;50.248;8.252;2023-10-08T08:56:10;16.40;99.90
37408;DHT22;24866;50.248;8.252;2023-10-08T08:58:41;16.50;99.90
37408;DHT22;24866;50.248;8.252;2023-10-08T09:01:13;16.40;99.90
37408;DHT22;24866;50.248;8.252;2023-10-08T09:03:43;16.40;99.90
37408;DHT22;24866;50.248;8.252;2023-10-08T09:06:16;16.40;99.90
37408;DHT22;24866;50.248;8.252;2023-10-08T09:08:47;16.40;99.90
37408;DHT22;24866;50.248;8.252;2023-10-08T09:11:20;16.50;99.90
37408;DHT22;24866;50.248;8.252;2023-10-08T09:13:50;16.50;99.90
37408;DHT22;24866;50.248;8.252;2023-10-08T09:16:20;16.60;99.90
37408;DHT22;24866;50.248;8.252;2023-10-08T09:18:51;16.90;99.90
37408;DHT22;24866;50.248;8.252;2023-10-08T09:21:21;16.90;99.90
37408;DHT22;24866;50.248;8.252;2023-10-08T09:23:53;16.90;99.90
37408;DHT22;24866;50.248;8.252;2023-10-08T09:26:24;17.10;99.90
37408;DHT22;24866;50.248;8.252;2023-10-08T09:28:55;17.40;99.90
37408;DHT22;24866;50.248;8.252;2023-10-08T09:31:26;17.30;99.90
37408;DHT22;24866;50.248;8.252;2023-10-08T09:34:04;17.30;99.90
37408;DHT22;24866;50.248;8.252;2023-10-08T09:36:34;17.40;99.90
37408;DHT22;24866;50.248;8.252;2023-10-08T09:39:07;17.30;99.90
37408;DHT22;24866;50.248;8.252;2023-10-08T09:41:50;17.40;99.90
37408;DHT22;24866;50.248;8.252;2023-10-08T09:44:23;17.30;99.90
37408;DHT22;24866;50.248;8.252;2023-10-08T09:47:02;17.30;99.90
37408;DHT22;24866;50.248;8.252;2023-10-08T09:49:38;17.40;99.90
37408;DHT22;24866;50.248;8.252;2023-10-08T09:52:11;17.60;99.90
37408;DHT22;24866;50.248;8.252;2023-10-08T09:54:54;17.50;99.90
37408;DHT22;24866;50.248;8.252;2023-10-08T09:57:26;17.60;99.90
37408;DHT22;24866;50.248;8.252;2023-10-08T09:59:56;17.40;99.90
37408;DHT22;24866;50.248;8.252;2023-10-08T10:02:26;17.50;99.90
37408;DHT22;24866;50.248;8.252;2023-10-08T10:04:56;17.70;99.90
37408;DHT22;24866;50.248;8.252;2023-10-08T10:07:26;17.80;99.90
37408;DHT22;24866;50.248;8.252;2023-10-08T10:09:58;18.10;99.90
37408;DHT22;24866;50.248;8.252;2023-10-08T10:12:30;18.40;99.90
37408;DHT22;24866;50.248;8.252;2023-10-08T10:15:00;18.40;99.90
37408;DHT22;24866;50.248;8.252;2023-10-08T10:17:30;17.90;99.90
37408;DHT22;24866;50.248;8.252;2023-10-08T10:20:01;18.20;99.90
37408;DHT22;24866;50.248;8.252;2023-10-08T10:22:33;18.30;99.90
37408;DHT22;24866;50.248;8.252;2023-10-08T10:25:07;18.20;99.90
37408;DHT22;24866;50.248;8.252;2023-10-08T10:28:23;18.40;99.90
37408;DHT22;24866;50.248;8.252;2023-10-08T10:30:53;18.50;99.90
37408;DHT22;24866;50.248;8.252;2023-10-08T10:33:30;18.80;99.90
37408;DHT22;24866;50.248;8.252;2023-10-08T10:36:01;18.90;99.90
37408;DHT22;24866;50.248;8.252;2023-10-08T10:38:33;19.20;99.90
37408;DHT22;24866;50.248;8.252;2023-10-08T10:41:06;19.00;99.90
37408;DHT22;24866;50.248;8.252;2023-10-08T10:43:37;19.20;99.90
37408;DHT22;24866;50.248;8.252;2023-10-08T10:46:09;19.20;99.90
37408;DHT22;24866;50.248;8.252;2023-10-08T10:48:59;19.20;99.90
37408;DHT22;24866;50.248;8.252;2023-10-08T10:51:48;20.00;99.90
37408;DHT22;24866;50.248;8.252;2023-10-08T10:54:17;20.30;99.90
37408;DHT22;24866;50.248;8.252;2023-10-08T10:56:53;20.00;99.90
37408;DHT22;24866;50.248;8.252;2023-10-08T10:59:32;19.70;99.90
37408;DHT22;24866;50.248;8.252;2023-10-08T11:02:06;19.70;99.90
37408;DHT22;24866;50.248;8.252;2023-10-08T11:04:36;20.10;99.90
37408;DHT22;24866;50.248;8.252;2023-10-08T11:07:18;19.90;99.90
37408;DHT22;24866;50.248;8.252;2023-10-08T11:09:56;20.30;99.90
37408;DHT22;24866;50.248;8.252;2023-10-08T11:12:29;19.70;99.90
37408;DHT22;24866;50.248;8.252;2023-10-08T11:15:11;19.70;99.90
37408;DHT22;24866;50.248;8.252;2023-10-08T11:17:43;19.80;99.90
37408;DHT22;24866;50.248;8.252;2023-10-08T11:20:23;20.10;99.90
37408;DHT22;24866;50.248;8.252;2023-10-08T11:22:53;19.80;99.90
37408;DHT22;24866;50.248;8.252;2023-10-08T11:25:24;19.70;99.90
37408;DHT22;24866;50.248;8.252;2023-10-08T11:28:00;19.80;99.90
37408;DHT22;24866;50.248;8.252;2023-10-08T11:30:37;20.60;99.90
37408;DHT22;24866;50.248;8.252;2023-10-08T11:33:11;20.00;99.90
37408;DHT22;24866;50.248;8.252;2023-10-08T11:35:55;20.40;99.90
37408;DHT22;24866;50.248;8.252;2023-10-08T11:38:28;19.80;99.90
37408;DHT22;24866;50.248;8.252;2023-10-08T11:41:10;19.80;99.90
37408;DHT22;24866;50.248;8.252;2023-10-08T11:43:51;20.60;99.90
37408;DHT22;24866;50.248;8.252;2023-10-08T11:46:22;21.50;99.90
37408;DHT22;24866;50.248;8.252;2023-10-08T11:48:54;20.40;99.90
37408;DHT22;24866;50.248;8.252;2023-10-08T11:51:32;20.60;99.90
37408;DHT22;24866;50.248;8.252;2023-10-08T11:54:03;21.80;99.90
37408;DHT22;24866;50.248;8.252;2023-10-08T11:56:34;22.20;99.90
37408;DHT22;24866;50.248;8.252;2023-10-08T11:59:05;22.40;99.90
37408;DHT22;24866;50.248;8.252;2023-10-08T12:01:37;21.60;99.90
37408;DHT22;24866;50.248;8.252;2023-10-08T12:04:10;21.10;99.90
37408;DHT22;24866;50.248;8.252;2023-10-08T12:06:42;20.80;99.90
37408;DHT22;24866;50.248;8.252;2023-10-08T12:09:15;21.00;99.90
37408;DHT22;24866;50.248;8.252;2023-10-08T12:11:45;20.80;99.90
37408;DHT22;24866;50.248;8.252;2023-10-08T12:14:16;21.10;99.90
37408;DHT22;24866;50.248;8.252;2023-10-08T12:16:47;21.30;99.90
37408;DHT22;24866;50.248;8.252;2023-10-08T12:19:20;21.20;99.90
37408;DHT22;24866;50.248;8.252;2023-10-08T12:21:50;21.50;99.90
37408;DHT22;24866;50.248;8.252;2023-10-08T12:24:21;21.10;99.90
37408;DHT22;24866;50.248;8.252;2023-10-08T12:26:51;20.90;99.90
37408;DHT22;24866;50.248;8.252;2023-10-08T12:29:23;21.60;99.90
37408;DHT22;24866;50.248;8.252;2023-10-08T12:31:54;21.40;99.90
37408;DHT22;24866;50.248;8.252;2023-10-08T12:34:24;21.50;99.90
37408;DHT22;24866;50.248;8.252;2023-10-08T12:36:54;22.30;99.90
37408;DHT22;24866;50.248;8.252;2023-10-08T12:39:24;22.30;99.90
37408;DHT22;24866;50.248;8.252;2023-10-08T12:41:56;22.60;99.90
37408;DHT22;24866;50.248;8.252;2023-10-08T12:44:34;22.40;99.90
37408;DHT22;24866;50.248;8.252;2023-10-08T12:47:05;22.70;99.90
37408;DHT22;24866;50.248;8.252;2023-10-08T12:49:35;22.00;99.90
37408;DHT22;24866;50.248;8.252;2023-10-08T12:52:06;22.50;99.90
37408;DHT22;24866;50.248;8.252;2023-10-08T12:54:37;22.00;99.90
37408;DHT22;24866;50.248;8.252;2023-10-08T12:57:13;21.30;99.90
37408;DHT22;24866;50.248;8.252;2023-10-08T12:59:49;22.20;99.90
37408;DHT22;24866;50.248;8.252;2023-10-08T13:02:20;21.30;99.90
37408;DHT22;24866;50.248;8.252;2023-10-08T13:04:56;20.90;99.90
37408;DHT22;24866;50.248;8.252;2023-10-08T13:07:28;21.10;99.90
37408;DHT22;24866;50.248;8.252;2023-10-08T13:10:07;21.10;99.90
37408;DHT22;24866;50.248;8.252;2023-10-08T13:12:39;21.50;99.90
37408;DHT22;24866;50.248;8.252;2023-10-08T13:15:11;21.60;99.90
37408;DHT22;24866;50.248;8.252;2023-10-08T13:17:41;21.60;99.90
37408;DHT22;24866;50.248;8.252;2023-10-08T13:20:12;21.70;99.90
37408;DHT22;24866;50.248;8.252;2023-10-08T13:22:43;21.90;99.90
37408;DHT22;24866;50.248;8.252;2023-10-08T13:25:13;22.00;99.90
37408;DHT22;24866;50.248;8.252;2023-10-08T13:27:45;22.20;99.90
37408;DHT22;24866;50.248;8.252;2023-10-08T13:30:18;21.70;99.90
37408;DHT22;24866;50.248;8.252;2023-10-08T13:32:49;20.90;99.90
37408;DHT22;24866;50.248;8.252;2023-10-08T13:35:20;21.30;99.90
37408;DHT22;24866;50.248;8.252;2023-10-08T13:37:50;21.70;99.90
37408;DHT22;24866;50.248;8.252;2023-10-08T13:40:20;21.60;99.90
37408;DHT22;24866;50.248;8.252;2023-10-08T13:43:01;20.60;99.90
37408;DHT22;24866;50.248;8.252;2023-10-08T13:45:32;21.10;99.90
37408;DHT22;24866;50.248;8.252;2023-10-08T13:48:06;21.00;99.90
37408;DHT22;24866;50.248;8.252;2023-10-08T13:50:39;21.00;99.90
37408;DHT22;24866;50.248;8.252;2023-10-08T13:53:09;21.00;99.90
37408;DHT22;24866;50.248;8.252;2023-10-08T13:55:39;21.30;99.90
37408;DHT22;24866;50.248;8.252;2023-10-08T13:58:13;21.70;99.90
37408;DHT22;24866;50.248;8.252;2023-10-08T14:00:44;21.80;99.90
37408;DHT22;24866;50.248;8.252;2023-10-08T14:03:16;21.50;99.90
37408;DHT22;24866;50.248;8.252;2023-10-08T14:05:50;21.40;99.90
37408;DHT22;24866;50.248;8.252;2023-10-08T14:08:20;21.70;99.90
37408;DHT22;24866;50.248;8.252;2023-10-08T14:10:50;21.70;99.90
37408;DHT22;24866;50.248;8.252;2023-10-08T14:13:20;20.70;99.90
37408;DHT22;24866;50.248;8.252;2023-10-08T14:15:52;20.60;99.90
37408;DHT22;24866;50.248;8.252;2023-10-08T14:18:24;20.60;99.90
37408;DHT22;24866;50.248;8.252;2023-10-08T14:20:57;20.80;99.90
37408;DHT22;24866;50.248;8.252;2023-10-08T14:23:30;21.20;99.90
37408;DHT22;24866;50.248;8.252;2023-10-08T14:26:08;21.20;99.90
37408;DHT22;24866;50.248;8.252;2023-10-08T14:28:39;21.10;99.90
37408;DHT22;24866;50.248;8.252;2023-10-08T14:31:21;20.70;99.90
37408;DHT22;24866;50.248;8.252;2023-10-08T14:33:53;21.10;99.90
37408;DHT22;24866;50.248;8.252;2023-10-08T14:36:34;21.20;99.90
37408;DHT22;24866;50.248;8.252;2023-10-08T14:39:21;20.90;99.90
37408;DHT22;24866;50.248;8.252;2023-10-08T14:42:09;21.10;99.90
37408;DHT22;24866;50.248;8.252;2023-10-08T14:44:56;20.70;99.90
37408;DHT22;24866;50.248;8.252;2023-10-08T14:47:27;20.80;99.90
37408;DHT22;24866;50.248;8.252;2023-10-08T14:49:57;21.10;99.90
37408;DHT22;24866;50.248;8.252;2023-10-08T14:52:28;21.40;99.90
37408;DHT22;24866;50.248;8.252;2023-10-08T14:54:58;21.30;99.90
37408;DHT22;24866;50.248;8.252;2023-10-08T14:57:28;21.20;99.90
37408;DHT22;24866;50.248;8.252;2023-10-08T14:59:58;21.30;99.90
37408;DHT22;24866;50.248;8.252;2023-10-08T15:02:29;21.40;99.90
37408;DHT22;24866;50.248;8.252;2023-10-08T15:04:59;21.40;99.90
37408;DHT22;24866;50.248;8.252;2023-10-08T15:07:29;21.40;99.90
37408;DHT22;24866;50.248;8.252;2023-10-08T15:10:00;21.10;99.90
37408;DHT22;24866;50.248;8.252;2023-10-08T15:12:30;20.90;99.90
37408;DHT22;24866;50.248;8.252;2023-10-08T15:15:03;21.00;99.90
37408;DHT22;24866;50.248;8.252;2023-10-08T15:17:43;21.20;99.90
37408;DHT22;24866;50.248;8.252;2023-10-08T15:20:14;21.20;99.90
37408;DHT22;24866;50.248;8.252;2023-10-08T15:22:46;21.00;99.90
37408;DHT22;24866;50.248;8.252;2023-10-08T15:25:17;20.90;99.90
37408;DHT22;24866;50.248;8.252;2023-10-08T15:27:47;20.90;99.90
37408;DHT22;24866;50.248;8.252;2023-10-08T15:30:18;21.00;99.90
37408;DHT22;24866;50.248;8.252;2023-10-08T15:32:50;20.70;99.90
37408;DHT22;24866;50.248;8.252;2023-10-08T15:35:21;20.80;99.90
37408;DHT22;24866;50.248;8.252;2023-10-08T15:37:52;20.50;99.90
37408;DHT22;24866;50.248;8.252;2023-10-08T15:40:23;20.50;99.90
37408;DHT22;24866;50.248;8.252;2023-10-08T15:42:54;20.50;99.90
37408;DHT22;24866;50.248;8.252;2023-10-08T15:45:25;20.50;99.90
37408;DHT22;24866;50.248;8.252;2023-10-08T15:47:57;20.60;99.90
37408;DHT22;24866;50.248;8.252;2023-10-08T15:50:27;20.80;99.90
37408;DHT22;24866;50.248;8.252;2023-10-08T15:53:01;20.90;99.90
37408;DHT22;24866;50.248;8.252;2023-10-08T15:55:32;20.90;99.90
37408;DHT22;24866;50.248;8.252;2023-10-08T15:58:02;20.50;99.90
37408;DHT22;24866;50.248;8.252;2023-10-08T16:00:32;20.30;99.90
37408;DHT22;24866;50.248;8.252;2023-10-08T16:03:04;20.20;99.90
37408;DHT22;24866;50.248;8.252;2023-10-08T16:05:35;20.30;99.90
37408;DHT22;24866;50.248;8.252;2023-10-08T16:08:05;20.20;99.90
37408;DHT22;24866;50.248;8.252;2023-10-08T16:10:35;20.50;99.90
37408;DHT22;24866;50.248;8.252;2023-10-08T16:13:05;20.50;99.90